createdAt,value
2022-12-16T00:00:00.651Z,18.83
2022-12-16T00:01:09.265Z,18.80
2022-12-16T00:02:11.462Z,20.73
2022-12-16T00:03:14.686Z,19.50
2022-12-16T00:04:17.732Z,20.50
2022-12-16T00:05:21.421Z,20.25
2022-12-16T00:06:25.655Z,20.60
2022-12-16T00:07:29.558Z,20.27
2022-12-16T00:08:37.273Z,19.65
2022-12-16T00:09:39.544Z,20.50
2022-12-16T00:10:54.849Z,20.52
2022-12-16T00:11:57.666Z,20.33
2022-12-16T00:13:07.253Z,21.15
2022-12-16T00:14:13.774Z,20.08
2022-12-16T00:15:16.103Z,19.95
2022-12-16T00:16:20.880Z,19.48
2022-12-16T00:17:23.871Z,19.52
2022-12-16T00:18:27.395Z,20.20
2022-12-16T00:19:29.537Z,20.77
2022-12-16T00:20:32.724Z,21.00
2022-12-16T00:21:34.869Z,20.75
2022-12-16T00:22:38.058Z,18.45
2022-12-16T00:23:41.894Z,19.95
2022-12-16T00:24:45.583Z,19.55
2022-12-16T00:25:49.329Z,20.67
2022-12-16T00:26:52.648Z,19.48
2022-12-16T00:28:00.290Z,20.45
2022-12-16T00:29:05.481Z,20.33
2022-12-16T00:30:10.702Z,20.50
2022-12-16T00:31:14.026Z,19.45
2022-12-16T00:32:16.396Z,20.13
2022-12-16T00:33:21.171Z,20.65
2022-12-16T00:34:23.327Z,20.30
2022-12-16T00:35:26.584Z,21.20
2022-12-16T00:36:29.871Z,20.60
2022-12-16T00:37:32.768Z,20.17
2022-12-16T00:38:36.328Z,20.83
2022-12-16T00:39:38.814Z,21.45
2022-12-16T00:40:42.725Z,19.92
2022-12-16T00:41:45.157Z,20.17
2022-12-16T00:42:48.426Z,20.08
2022-12-16T00:43:50.557Z,20.40
2022-12-16T00:44:53.727Z,21.20
2022-12-16T00:45:58.587Z,20.70
2022-12-16T00:47:01.778Z,20.35
2022-12-16T00:48:04.190Z,20.83
2022-12-16T00:49:07.585Z,20.38
2022-12-16T00:50:11.314Z,20.85
2022-12-16T00:51:14.723Z,21.15
2022-12-16T00:52:16.922Z,20.17
2022-12-16T00:53:20.159Z,19.83
2022-12-16T00:54:22.421Z,21.17
2022-12-16T00:55:26.184Z,21.75
2022-12-16T00:56:28.353Z,21.08
2022-12-16T00:57:31.501Z,20.65
2022-12-16T00:58:33.941Z,20.33
2022-12-16T00:59:37.515Z,21.42
2022-12-16T01:00:39.682Z,21.08
2022-12-16T01:01:44.512Z,20.52
2022-12-16T01:02:48.973Z,21.10
2022-12-16T01:03:52.192Z,20.33
2022-12-16T01:04:54.410Z,21.58
2022-12-16T01:05:57.968Z,21.15
2022-12-16T01:07:00.106Z,21.35
2022-12-16T01:08:03.214Z,20.52
2022-12-16T01:09:05.371Z,20.95
2022-12-16T01:10:10.692Z,20.95
2022-12-16T01:11:12.826Z,21.42
2022-12-16T01:12:16.058Z,20.92
2022-12-16T01:13:18.286Z,20.48
2022-12-16T01:14:21.574Z,21.10
2022-12-16T01:15:23.812Z,21.85
2022-12-16T01:16:27.074Z,21.17
2022-12-16T01:17:30.654Z,21.20
2022-12-16T01:18:33.864Z,20.42
2022-12-16T01:19:37.071Z,21.38
2022-12-16T01:20:40.424Z,20.92
2022-12-16T01:21:42.610Z,22.13
2022-12-16T01:22:45.850Z,21.30
2022-12-16T01:23:48.447Z,21.85
2022-12-16T01:24:51.643Z,20.63
2022-12-16T01:25:58.491Z,21.42
2022-12-16T01:27:01.693Z,21.15
2022-12-16T01:28:04.217Z,22.00
2022-12-16T01:29:07.783Z,20.95
2022-12-16T01:30:13.228Z,21.52
2022-12-16T01:31:18.395Z,20.30
2022-12-16T01:32:20.713Z,21.15
2022-12-16T01:33:25.399Z,21.40
2022-12-16T01:34:27.646Z,21.15
2022-12-16T01:35:52.557Z,21.55
2022-12-16T01:36:53.931Z,21.60
2022-12-16T01:37:57.425Z,20.90
2022-12-16T01:39:01.119Z,21.40
2022-12-16T01:40:03.651Z,21.67
2022-12-16T01:41:07.170Z,20.83
2022-12-16T01:42:12.567Z,21.02
2022-12-16T01:43:16.918Z,21.70
2022-12-16T01:44:22.519Z,21.27
2022-12-16T01:45:33.461Z,20.85
2022-12-16T01:46:38.624Z,21.08
2022-12-16T01:47:40.822Z,20.85
2022-12-16T01:48:49.823Z,21.27
2022-12-16T01:49:59.347Z,20.98
2022-12-16T01:51:07.233Z,21.55
2022-12-16T01:52:16.752Z,21.98
2022-12-16T01:53:19.713Z,21.80
2022-12-16T01:54:26.853Z,22.10
2022-12-16T01:55:33.183Z,20.52
2022-12-16T01:56:38.582Z,20.90
2022-12-16T01:57:47.007Z,20.90
2022-12-16T01:58:51.845Z,20.88
2022-12-16T01:59:55.995Z,21.77
2022-12-16T02:00:59.896Z,22.45
2022-12-16T02:02:03.032Z,20.88
2022-12-16T02:03:07.303Z,20.23
2022-12-16T02:04:12.480Z,21.20
2022-12-16T02:05:22.949Z,20.90
2022-12-16T02:06:25.445Z,21.10
2022-12-16T02:07:28.614Z,20.85
2022-12-16T02:08:31.099Z,21.17
2022-12-16T02:09:34.263Z,21.45
2022-12-16T02:10:49.973Z,20.88
2022-12-16T02:12:18.141Z,20.83
2022-12-16T02:13:26.492Z,20.77
2022-12-16T02:14:47.839Z,21.23
2022-12-16T02:15:59.083Z,21.42
2022-12-16T02:17:08.345Z,20.70
2022-12-16T02:18:19.173Z,20.98
2022-12-16T02:20:06.103Z,20.77
2022-12-16T02:21:23.699Z,20.80
2022-12-16T02:22:38.738Z,21.27
2022-12-16T02:24:19.424Z,21.40
2022-12-16T02:25:50.731Z,20.33
2022-12-16T02:27:13.230Z,19.63
2022-12-16T02:28:33.664Z,19.48
2022-12-16T02:30:02.102Z,20.00
2022-12-16T02:31:22.560Z,20.50
2022-12-16T02:32:29.788Z,21.02
2022-12-16T02:33:58.935Z,20.75
2022-12-16T02:35:11.169Z,20.90
2022-12-16T02:36:22.349Z,20.40
2022-12-16T02:37:39.138Z,21.35
2022-12-16T02:38:55.912Z,20.90
2022-12-16T02:40:02.295Z,21.10
2022-12-16T02:41:06.989Z,21.77
2022-12-16T02:42:17.796Z,21.30
2022-12-16T02:44:41.136Z,19.65
2022-12-16T02:45:45.337Z,20.45
2022-12-16T02:46:55.509Z,20.48
2022-12-16T02:47:59.212Z,20.80
2022-12-16T02:49:07.534Z,20.77
2022-12-16T02:50:19.733Z,21.00
2022-12-16T02:51:24.168Z,20.85
2022-12-16T02:52:30.182Z,20.90
2022-12-16T02:53:35.518Z,20.98
2022-12-16T02:54:39.091Z,22.75
2022-12-16T02:55:53.445Z,21.70
2022-12-16T02:57:09.186Z,21.20
2022-12-16T02:58:16.517Z,21.27
2022-12-16T02:59:25.952Z,22.10
2022-12-16T03:00:35.768Z,20.23
2022-12-16T03:01:45.275Z,21.80
2022-12-16T03:02:57.714Z,20.70
2022-12-16T03:04:06.712Z,21.45
2022-12-16T03:05:16.721Z,21.02
2022-12-16T03:06:21.166Z,21.20
2022-12-16T03:07:27.114Z,21.38
2022-12-16T03:08:34.144Z,21.33
2022-12-16T03:09:40.911Z,21.58
2022-12-16T03:10:49.219Z,21.63
2022-12-16T03:11:55.464Z,21.98
2022-12-16T03:13:01.544Z,21.63
2022-12-16T03:14:08.619Z,22.52
2022-12-16T03:15:13.652Z,22.10
2022-12-16T03:16:20.294Z,22.90
2022-12-16T03:17:25.023Z,21.92
2022-12-16T03:18:30.153Z,21.30
2022-12-16T03:19:32.379Z,21.38
2022-12-16T03:20:38.643Z,22.92
2022-12-16T03:21:47.644Z,22.67
2022-12-16T03:22:52.398Z,21.70
2022-12-16T03:24:00.187Z,22.42
2022-12-16T03:25:02.652Z,22.90
2022-12-16T03:26:09.676Z,21.23
2022-12-16T03:27:18.454Z,21.52
2022-12-16T03:28:31.648Z,21.63
2022-12-16T03:29:42.144Z,21.73
2022-12-16T03:30:50.189Z,21.50
2022-12-16T03:31:58.928Z,22.42
2022-12-16T03:33:07.491Z,22.00
2022-12-16T03:34:18.703Z,23.17
2022-12-16T03:35:28.635Z,21.83
2022-12-16T03:36:37.454Z,22.33
2022-12-16T03:37:41.474Z,22.77
2022-12-16T03:38:46.742Z,22.27
2022-12-16T03:39:53.552Z,22.27
2022-12-16T03:40:59.202Z,23.20
2022-12-16T03:42:04.116Z,23.35
2022-12-16T03:43:09.244Z,22.02
2022-12-16T03:44:11.710Z,22.05
2022-12-16T03:45:18.409Z,24.20
2022-12-16T03:46:21.206Z,23.30
2022-12-16T03:47:27.425Z,23.63
2022-12-16T03:48:30.078Z,23.17
2022-12-16T03:49:35.219Z,23.30
2022-12-16T03:50:39.426Z,23.10
2022-12-16T03:51:42.933Z,23.20
2022-12-16T03:52:45.669Z,23.50
2022-12-16T03:53:49.049Z,23.83
2022-12-16T03:54:52.146Z,23.17
2022-12-16T03:55:55.581Z,24.63
2022-12-16T03:56:57.919Z,22.95
2022-12-16T03:58:01.086Z,23.45
2022-12-16T03:59:03.370Z,22.92
2022-12-16T04:00:07.962Z,22.55
2022-12-16T04:01:15.084Z,22.98
2022-12-16T04:02:18.808Z,24.30
2022-12-16T04:03:22.899Z,24.23
2022-12-16T04:04:26.706Z,24.17
2022-12-16T04:05:30.226Z,23.40
2022-12-16T04:06:33.676Z,22.73
2022-12-16T04:07:36.076Z,24.20
2022-12-16T04:08:39.377Z,24.05
2022-12-16T04:09:41.493Z,23.52
2022-12-16T04:11:02.084Z,24.50
2022-12-16T04:12:23.627Z,22.30
2022-12-16T04:13:44.314Z,22.92
2022-12-16T04:15:16.399Z,23.20
2022-12-16T04:16:37.571Z,22.50
2022-12-16T04:17:58.083Z,23.60
2022-12-16T04:19:18.914Z,22.80
2022-12-16T04:22:03.032Z,21.60
2022-12-16T04:23:24.343Z,22.17
2022-12-16T04:24:30.333Z,21.33
2022-12-16T04:25:35.828Z,22.88
2022-12-16T04:26:52.991Z,24.92
2022-12-16T04:27:58.615Z,23.88
2022-12-16T04:29:00.774Z,22.73
2022-12-16T04:30:22.745Z,23.77
2022-12-16T04:31:24.970Z,24.23
2022-12-16T04:32:48.341Z,22.45
2022-12-16T04:34:08.817Z,22.70
2022-12-16T04:35:25.865Z,23.90
2022-12-16T04:36:46.367Z,22.52
2022-12-16T04:38:08.573Z,23.42
2022-12-16T04:39:29.299Z,23.42
2022-12-16T04:42:11.471Z,16.67
2022-12-16T04:43:32.743Z,23.13
2022-12-16T04:44:53.360Z,22.25
2022-12-16T04:46:22.476Z,23.38
2022-12-16T04:47:43.132Z,23.17
2022-12-16T04:49:03.520Z,23.23
2022-12-16T04:50:25.082Z,23.55
2022-12-16T04:51:45.908Z,23.85
2022-12-16T04:54:31.465Z,23.33
2022-12-16T04:56:04.944Z,23.40
2022-12-16T04:57:26.163Z,23.75
2022-12-16T04:58:46.520Z,23.05
2022-12-16T05:00:18.898Z,23.88
2022-12-16T05:01:39.924Z,22.92
2022-12-16T05:03:01.004Z,23.27
2022-12-16T05:04:21.880Z,23.00
2022-12-16T05:07:01.888Z,21.63
2022-12-16T05:08:23.911Z,21.88
2022-12-16T05:09:59.002Z,22.15
2022-12-16T05:11:19.599Z,24.40
2022-12-16T05:12:40.254Z,22.67
2022-12-16T05:14:00.895Z,23.30
2022-12-16T05:15:32.733Z,23.83
2022-12-16T05:16:53.079Z,23.33
2022-12-16T05:18:13.684Z,17.77
2022-12-16T05:19:34.408Z,23.27
2022-12-16T05:20:55.249Z,24.27
2022-12-16T05:22:16.057Z,24.60
2022-12-16T05:23:38.166Z,24.38
2022-12-16T05:24:59.170Z,24.15
2022-12-16T05:26:20.029Z,23.85
2022-12-16T05:30:23.657Z,22.20
2022-12-16T05:31:44.605Z,22.45
2022-12-16T05:33:07.762Z,23.42
2022-12-16T05:34:30.646Z,23.73
2022-12-16T05:35:51.631Z,23.50
2022-12-16T05:37:12.614Z,24.10
2022-12-16T05:38:33.122Z,24.85
2022-12-16T05:39:55.337Z,24.98
2022-12-16T05:41:15.864Z,24.63
2022-12-16T05:42:36.460Z,23.25
2022-12-16T05:43:57.250Z,24.17
2022-12-16T05:45:29.343Z,24.67
2022-12-16T05:46:50.188Z,24.95
2022-12-16T05:49:31.215Z,22.52
2022-12-16T05:50:52.278Z,23.45
2022-12-16T05:52:12.795Z,24.23
2022-12-16T05:53:33.804Z,23.23
2022-12-16T05:54:56.061Z,24.58
2022-12-16T05:56:16.512Z,24.33
2022-12-16T05:57:36.945Z,24.63
2022-12-16T05:58:57.822Z,23.35
2022-12-16T06:00:18.382Z,24.08
2022-12-16T06:01:50.635Z,24.15
2022-12-16T06:03:11.670Z,24.85
2022-12-16T06:04:32.643Z,23.98
2022-12-16T06:07:13.617Z,23.10
2022-12-16T06:08:31.032Z,24.15
2022-12-16T06:09:56.356Z,24.13
2022-12-16T06:11:18.907Z,23.13
2022-12-16T06:12:39.269Z,24.92
2022-12-16T06:13:59.991Z,25.15
2022-12-16T06:16:40.903Z,16.85
2022-12-16T06:18:02.513Z,23.85
2022-12-16T06:19:22.935Z,23.73
2022-12-16T06:20:43.710Z,24.10
2022-12-16T06:23:25.668Z,22.23
2022-12-16T06:24:46.512Z,23.23
2022-12-16T06:26:07.182Z,23.98
2022-12-16T06:27:29.281Z,23.02
2022-12-16T06:28:50.102Z,23.45
2022-12-16T06:31:31.021Z,18.20
2022-12-16T06:32:51.694Z,23.95
2022-12-16T06:34:12.712Z,22.42
2022-12-16T06:35:33.693Z,23.17
2022-12-16T06:36:54.606Z,24.98
2022-12-16T06:38:15.179Z,23.92
2022-12-16T06:39:36.171Z,24.40
2022-12-16T06:40:56.872Z,24.63
2022-12-16T06:42:17.347Z,24.95
2022-12-16T06:43:39.395Z,25.33
2022-12-16T06:45:02.093Z,23.92
2022-12-16T06:46:23.221Z,25.73
2022-12-16T06:47:40.276Z,25.13
2022-12-16T06:49:01.034Z,24.90
2022-12-16T06:51:41.725Z,23.13
2022-12-16T06:53:02.303Z,23.70
2022-12-16T06:54:23.615Z,23.67
2022-12-16T06:55:44.025Z,25.05
2022-12-16T06:57:04.828Z,23.83
2022-12-16T06:59:47.223Z,17.88
2022-12-16T07:01:07.821Z,24.13
2022-12-16T07:02:44.353Z,24.17
2022-12-16T07:04:05.545Z,23.60
2022-12-16T07:05:26.880Z,23.77
2022-12-16T07:06:47.250Z,24.92
2022-12-16T07:08:08.073Z,25.80
2022-12-16T07:10:51.743Z,23.17
2022-12-16T07:12:15.582Z,22.27
2022-12-16T07:13:36.237Z,23.85
2022-12-16T07:14:58.226Z,23.40
2022-12-16T07:16:18.929Z,24.48
2022-12-16T07:17:39.637Z,24.55
2022-12-16T07:18:59.567Z,25.25
2022-12-16T07:20:20.397Z,23.20
2022-12-16T07:23:30.363Z,24.67
2022-12-16T07:24:50.965Z,23.50
2022-12-16T07:26:11.896Z,24.95
2022-12-16T07:28:52.883Z,23.90
2022-12-16T07:30:14.695Z,26.20
2022-12-16T07:31:35.315Z,28.02
2022-12-16T07:32:56.236Z,27.33
2022-12-16T07:35:37.274Z,25.80
2022-12-16T07:36:57.952Z,25.52
2022-12-16T07:38:17.648Z,25.52
2022-12-16T07:39:38.107Z,25.48
2022-12-16T07:40:58.718Z,26.85
2022-12-16T07:42:19.207Z,25.75
2022-12-16T07:43:39.966Z,25.40
2022-12-16T07:45:00.296Z,25.38
2022-12-16T07:46:22.189Z,24.70
2022-12-16T07:47:42.612Z,25.42
2022-12-16T07:49:03.195Z,24.75
2022-12-16T07:50:24.577Z,24.70
2022-12-16T07:51:45.391Z,24.77
2022-12-16T07:54:32.594Z,23.45
2022-12-16T07:55:53.113Z,25.25
2022-12-16T07:57:14.601Z,25.08
2022-12-16T07:58:35.085Z,24.60
2022-12-16T07:59:55.632Z,24.48
2022-12-16T08:01:16.099Z,24.75
2022-12-16T08:02:38.393Z,24.45
2022-12-16T08:03:59.456Z,24.45
2022-12-16T08:05:20.048Z,24.92
2022-12-16T08:06:40.552Z,24.67
2022-12-16T08:08:01.248Z,24.10
2022-12-16T08:09:22.294Z,25.38
2022-12-16T08:10:43.161Z,25.45
2022-12-16T08:13:26.072Z,23.35
2022-12-16T08:14:52.830Z,23.23
2022-12-16T08:16:13.449Z,24.70
2022-12-16T08:17:34.390Z,24.08
2022-12-16T08:20:16.762Z,23.33
2022-12-16T08:21:37.479Z,23.95
2022-12-16T08:24:19.189Z,22.15
2022-12-16T08:27:00.597Z,23.17
2022-12-16T08:29:44.643Z,23.73
2022-12-16T08:31:08.570Z,24.17
2022-12-16T08:32:28.977Z,24.83
2022-12-16T08:33:49.796Z,25.45
2022-12-16T08:36:32.577Z,23.08
2022-12-16T08:37:53.077Z,23.85
2022-12-16T08:39:13.487Z,24.13
2022-12-16T08:40:35.830Z,24.55
2022-12-16T08:41:56.901Z,24.73
2022-12-16T08:43:17.493Z,24.90
2022-12-16T08:44:38.374Z,23.42
2022-12-16T08:47:19.387Z,22.27
2022-12-16T08:48:51.228Z,23.63
2022-12-16T08:50:27.894Z,24.02
2022-12-16T08:51:51.874Z,24.60
2022-12-16T08:53:12.458Z,24.17
2022-12-16T08:54:33.372Z,24.30
2022-12-16T08:55:55.886Z,25.08
2022-12-16T08:57:17.238Z,24.35
2022-12-16T08:58:38.131Z,24.52
2022-12-16T09:01:27.755Z,23.13
2022-12-16T09:02:48.880Z,24.90
2022-12-16T09:04:09.625Z,24.40
2022-12-16T09:05:31.722Z,26.17
2022-12-16T09:06:52.412Z,23.23
2022-12-16T09:08:17.499Z,24.45
2022-12-16T09:09:38.338Z,25.33
2022-12-16T09:12:19.031Z,23.70
2022-12-16T09:13:40.035Z,25.08
2022-12-16T09:15:00.887Z,22.92
2022-12-16T09:16:21.575Z,24.80
2022-12-16T09:17:42.307Z,23.70
2022-12-16T09:19:03.087Z,24.80
2022-12-16T09:21:46.011Z,23.95
2022-12-16T09:23:06.764Z,24.40
2022-12-16T09:24:27.718Z,25.00
2022-12-16T09:25:48.304Z,25.25
2022-12-16T09:27:08.716Z,24.90
2022-12-16T09:28:29.425Z,25.08
2022-12-16T09:29:50.064Z,26.02
2022-12-16T09:31:10.616Z,25.02
2022-12-16T09:32:31.419Z,24.58
2022-12-16T09:35:14.832Z,24.17
2022-12-16T09:36:36.239Z,26.98
2022-12-16T09:38:04.458Z,25.95
2022-12-16T09:39:25.161Z,25.10
2022-12-16T09:40:45.805Z,26.23
2022-12-16T09:42:20.744Z,26.27
2022-12-16T09:44:05.845Z,24.35
2022-12-16T09:45:33.272Z,26.15
2022-12-16T09:47:08.242Z,25.75
2022-12-16T09:48:34.218Z,24.98
2022-12-16T09:50:06.021Z,26.30
2022-12-16T09:51:28.248Z,25.70
2022-12-16T09:52:52.356Z,25.55
2022-12-16T09:54:16.028Z,26.48
2022-12-16T09:55:44.112Z,25.52
2022-12-16T09:57:06.273Z,25.55
2022-12-16T09:58:29.369Z,25.05
2022-12-16T09:59:54.415Z,26.83
2022-12-16T10:01:16.312Z,25.85
2022-12-16T10:02:38.774Z,25.60
2022-12-16T10:03:59.716Z,26.23
2022-12-16T10:06:55.971Z,23.98
2022-12-16T10:08:29.196Z,24.63
2022-12-16T10:10:10.502Z,26.42
2022-12-16T10:11:41.291Z,25.42
2022-12-16T10:13:10.313Z,27.27
2022-12-16T10:14:37.404Z,24.33
2022-12-16T10:16:04.221Z,25.48
2022-12-16T10:17:31.711Z,25.38
2022-12-16T10:19:05.382Z,26.02
2022-12-16T10:20:34.803Z,26.83
2022-12-16T10:22:04.412Z,26.90
2022-12-16T10:23:38.769Z,25.60
2022-12-16T10:25:12.567Z,25.77
2022-12-16T10:26:38.765Z,26.40
2022-12-16T10:28:03.824Z,25.67
2022-12-16T10:29:31.570Z,26.13
2022-12-16T10:31:07.197Z,24.23
2022-12-16T10:32:34.360Z,25.33
2022-12-16T10:33:55.148Z,25.70
2022-12-16T10:35:16.882Z,26.83
2022-12-16T10:36:41.440Z,25.17
2022-12-16T10:38:16.687Z,26.58
2022-12-16T10:39:46.288Z,25.48
2022-12-16T10:41:09.082Z,26.33
2022-12-16T10:42:36.156Z,25.58
2022-12-16T10:44:01.477Z,25.98
2022-12-16T10:45:23.335Z,27.13
2022-12-16T10:46:48.334Z,26.38
2022-12-16T10:48:09.374Z,25.98
2022-12-16T10:50:52.932Z,25.80
2022-12-16T10:52:14.223Z,25.95
2022-12-16T10:55:16.509Z,26.48
2022-12-16T10:57:00.674Z,27.55
2022-12-16T10:58:34.211Z,25.90
2022-12-16T10:59:59.299Z,27.75
2022-12-16T11:01:20.060Z,26.27
2022-12-16T11:02:43.530Z,26.88
2022-12-16T11:04:04.378Z,26.63
2022-12-16T11:05:47.501Z,27.63
2022-12-16T11:07:08.467Z,27.48
2022-12-16T11:08:43.354Z,27.70
2022-12-16T11:10:03.942Z,26.80
2022-12-16T11:11:32.480Z,27.42
2022-12-16T11:12:55.084Z,27.55
2022-12-16T11:14:32.456Z,27.33
2022-12-16T11:15:53.028Z,27.10
2022-12-16T11:17:31.542Z,27.52
2022-12-16T11:18:52.060Z,26.58
2022-12-16T11:20:26.312Z,26.65
2022-12-16T11:21:46.903Z,27.45
2022-12-16T11:23:25.194Z,27.13
2022-12-16T11:24:47.021Z,27.15
2022-12-16T11:26:22.808Z,26.95
2022-12-16T11:27:44.941Z,26.88
2022-12-16T11:29:21.217Z,26.88
2022-12-16T11:30:42.436Z,26.33
2022-12-16T11:32:03.315Z,26.88
2022-12-16T11:34:51.101Z,25.80
2022-12-16T11:36:23.582Z,26.30
2022-12-16T11:37:47.689Z,26.27
2022-12-16T11:39:10.651Z,26.85
2022-12-16T11:40:35.176Z,27.48
2022-12-16T11:41:58.662Z,27.08
2022-12-16T11:43:22.069Z,27.77
2022-12-16T11:44:48.835Z,28.13
2022-12-16T11:46:11.420Z,27.48
2022-12-16T11:47:40.459Z,27.35
2022-12-16T11:49:06.214Z,26.77
2022-12-16T11:50:34.533Z,27.23
2022-12-16T11:52:20.820Z,26.40
2022-12-16T11:53:49.014Z,25.95
2022-12-16T11:55:18.071Z,25.63
2022-12-16T11:56:43.169Z,26.90
2022-12-16T11:58:10.716Z,27.00
2022-12-16T11:59:42.406Z,26.85
2022-12-16T12:01:16.118Z,26.08
2022-12-16T12:02:42.837Z,26.88
2022-12-16T12:04:05.494Z,26.15
2022-12-16T12:05:30.953Z,25.95
2022-12-16T12:07:05.654Z,26.95
2022-12-16T12:08:35.091Z,28.98
2022-12-16T12:10:07.612Z,26.45
2022-12-16T12:11:39.192Z,25.52
2022-12-16T12:13:07.589Z,26.20
2022-12-16T12:14:33.887Z,26.92
2022-12-16T12:16:01.936Z,26.40
2022-12-16T12:17:39.018Z,26.48
2022-12-16T12:19:07.954Z,26.58
2022-12-16T12:20:53.141Z,26.58
2022-12-16T12:22:16.906Z,26.85
2022-12-16T12:23:46.311Z,26.95
2022-12-16T12:25:27.071Z,26.55
2022-12-16T12:26:50.827Z,26.35
2022-12-16T12:28:20.411Z,27.58
2022-12-16T12:29:49.967Z,26.73
2022-12-16T12:31:19.081Z,26.77
2022-12-16T12:32:51.253Z,26.73
2022-12-16T12:34:22.497Z,26.40
2022-12-16T12:36:01.110Z,27.45
2022-12-16T12:37:29.291Z,25.95
2022-12-16T12:38:58.797Z,26.70
2022-12-16T12:40:31.896Z,26.48
2022-12-16T12:42:08.683Z,26.95
2022-12-16T12:43:43.456Z,27.23
2022-12-16T12:45:16.852Z,25.60
2022-12-16T12:46:42.993Z,26.92
2022-12-16T12:48:13.861Z,24.48
2022-12-16T12:49:44.445Z,27.67
2022-12-16T12:51:10.981Z,26.45
2022-12-16T12:52:41.926Z,26.25
2022-12-16T12:54:09.702Z,26.70
2022-12-16T12:55:38.747Z,26.73
2022-12-16T12:57:07.658Z,26.75
2022-12-16T12:58:31.294Z,27.00
2022-12-16T13:00:04.850Z,26.95
2022-12-16T13:01:27.115Z,26.98
2022-12-16T13:02:54.703Z,27.75
2022-12-16T13:04:22.030Z,26.13
2022-12-16T13:05:46.169Z,27.70
2022-12-16T13:07:08.068Z,28.40
2022-12-16T13:09:05.592Z,26.85
2022-12-16T13:10:33.159Z,26.95
2022-12-16T13:11:55.045Z,27.92
2022-12-16T13:13:48.880Z,27.67
2022-12-16T13:15:20.999Z,29.45
2022-12-16T13:17:25.929Z,29.17
2022-12-16T13:18:47.791Z,29.15
2022-12-16T13:20:16.539Z,28.25
2022-12-16T13:22:02.208Z,29.80
2022-12-16T13:23:47.568Z,29.45
2022-12-16T13:25:09.532Z,29.25
2022-12-16T13:26:31.813Z,30.15
2022-12-16T13:28:09.324Z,30.15
2022-12-16T13:29:38.300Z,30.50
2022-12-16T13:31:20.060Z,29.48
2022-12-16T13:32:44.657Z,29.42
2022-12-16T13:34:10.581Z,29.40
2022-12-16T13:35:36.916Z,30.80
2022-12-16T13:36:59.301Z,29.25
2022-12-16T13:38:22.855Z,31.30
2022-12-16T13:39:45.849Z,30.92
2022-12-16T13:41:11.026Z,31.48
2022-12-16T13:43:08.281Z,32.13
2022-12-16T13:44:29.124Z,29.90
2022-12-16T13:47:14.782Z,30.17
2022-12-16T13:48:57.831Z,29.90
2022-12-16T13:50:29.998Z,29.98
2022-12-16T13:52:18.228Z,29.50
2022-12-16T13:53:41.027Z,29.58
2022-12-16T13:55:07.499Z,30.13
2022-12-16T13:56:34.891Z,30.85
2022-12-16T13:57:59.868Z,31.17
2022-12-16T13:59:25.425Z,31.25
2022-12-16T14:00:47.793Z,31.25
2022-12-16T14:02:12.152Z,32.65
2022-12-16T14:03:38.569Z,31.70
2022-12-16T14:05:04.313Z,31.42
2022-12-16T14:06:31.945Z,31.40
2022-12-16T14:07:57.620Z,31.27
2022-12-16T14:09:22.702Z,30.17
2022-12-16T14:10:46.082Z,30.05
2022-12-16T14:12:13.406Z,30.98
2022-12-16T14:13:53.886Z,30.70
2022-12-16T14:15:22.775Z,31.58
2022-12-16T14:16:54.334Z,30.70
2022-12-16T14:18:23.239Z,30.38
2022-12-16T14:19:52.343Z,29.98
2022-12-16T14:21:17.644Z,30.67
2022-12-16T14:22:49.276Z,32.10
2022-12-16T14:24:16.371Z,32.25
2022-12-16T14:25:39.785Z,31.33
2022-12-16T14:27:01.519Z,30.38
2022-12-16T14:28:26.935Z,31.05
2022-12-16T14:29:49.999Z,31.60
2022-12-16T14:31:21.930Z,31.67
2022-12-16T14:32:47.841Z,32.40
2022-12-16T14:34:11.641Z,30.05
2022-12-16T14:35:34.089Z,31.90
2022-12-16T14:36:57.695Z,32.55
2022-12-16T14:38:53.436Z,32.20
2022-12-16T14:40:29.948Z,31.15
2022-12-16T14:41:50.804Z,31.23
2022-12-16T14:43:13.252Z,32.67
2022-12-16T14:44:36.696Z,34.00
2022-12-16T14:45:58.036Z,32.90
2022-12-16T14:47:18.811Z,33.63
2022-12-16T14:48:49.920Z,34.58
2022-12-16T14:50:13.192Z,33.17
2022-12-16T14:51:44.355Z,35.85
2022-12-16T14:53:04.907Z,34.80
2022-12-16T14:54:44.631Z,35.55
2022-12-16T14:56:06.555Z,33.88
2022-12-16T14:57:33.230Z,33.92
2022-12-16T14:58:54.053Z,34.03
2022-12-16T15:01:45.616Z,33.08
2022-12-16T15:03:11.495Z,35.92
2022-12-16T15:04:36.435Z,34.58
2022-12-16T15:05:58.213Z,36.90
2022-12-16T15:07:20.543Z,37.25
2022-12-16T15:08:42.408Z,37.47
2022-12-16T15:10:06.060Z,36.03
2022-12-16T15:11:31.728Z,36.78
2022-12-16T15:12:56.920Z,36.80
2022-12-16T15:14:35.870Z,36.88
2022-12-16T15:16:02.809Z,35.33
2022-12-16T15:17:24.966Z,37.03
2022-12-16T15:18:52.214Z,38.10
2022-12-16T15:20:13.427Z,38.20
2022-12-16T15:22:55.464Z,38.08
2022-12-16T15:24:19.449Z,37.25
2022-12-16T15:27:08.640Z,37.15
2022-12-16T15:28:43.614Z,37.03
2022-12-16T15:30:04.772Z,36.60
2022-12-16T15:31:36.648Z,36.38
2022-12-16T15:33:00.730Z,37.28
2022-12-16T15:34:40.844Z,37.38
2022-12-16T15:36:02.550Z,37.97
2022-12-16T15:37:32.896Z,38.33
2022-12-16T15:38:55.248Z,37.05
2022-12-16T15:40:16.061Z,37.15
2022-12-16T15:41:42.108Z,38.22
2022-12-16T15:43:09.844Z,37.90
2022-12-16T15:44:35.669Z,37.78
2022-12-16T15:45:56.326Z,37.80
2022-12-16T15:47:17.076Z,39.25
2022-12-16T15:48:40.068Z,39.38
2022-12-16T15:50:06.998Z,35.67
2022-12-16T15:51:40.953Z,36.88
2022-12-16T15:53:02.510Z,37.92
2022-12-16T15:54:25.972Z,37.67
2022-12-16T15:55:50.239Z,38.63
2022-12-16T15:57:10.712Z,38.13
2022-12-16T15:58:37.234Z,40.03
2022-12-16T16:00:14.079Z,38.83
2022-12-16T16:01:38.068Z,37.85
2022-12-16T16:03:05.857Z,37.63
2022-12-16T16:04:40.644Z,38.58
2022-12-16T16:06:01.602Z,37.47
2022-12-16T16:07:22.735Z,37.78
2022-12-16T16:08:43.408Z,39.10
2022-12-16T16:10:04.712Z,37.97
2022-12-16T16:11:26.604Z,38.63
2022-12-16T16:12:47.506Z,38.30
2022-12-16T16:15:36.014Z,35.75
2022-12-16T16:16:56.945Z,38.53
2022-12-16T16:18:19.456Z,38.17
2022-12-16T16:19:43.085Z,39.67
2022-12-16T16:21:04.538Z,38.67
2022-12-16T16:22:29.927Z,37.85
2022-12-16T16:23:50.951Z,39.33
2022-12-16T16:25:11.539Z,38.28
2022-12-16T16:26:34.825Z,37.25
2022-12-16T16:27:55.730Z,39.17
2022-12-16T16:30:39.938Z,37.47
2022-12-16T16:33:25.746Z,36.58
2022-12-16T16:34:47.062Z,38.85
2022-12-16T16:37:31.836Z,37.08
2022-12-16T16:38:53.019Z,38.35
2022-12-16T16:40:13.563Z,37.90
2022-12-16T16:41:34.958Z,39.20
2022-12-16T16:42:55.555Z,39.47
2022-12-16T16:44:19.736Z,41.17
2022-12-16T16:45:40.945Z,40.10
2022-12-16T16:48:27.998Z,39.78
2022-12-16T16:49:50.490Z,39.45
2022-12-16T16:51:14.597Z,41.38
2022-12-16T16:52:38.016Z,39.45
2022-12-16T16:53:58.780Z,39.22
2022-12-16T16:55:19.768Z,39.90
2022-12-16T16:56:40.162Z,38.53
2022-12-16T16:58:00.926Z,38.33
2022-12-16T17:00:44.426Z,37.13
2022-12-16T17:03:26.480Z,36.70
2022-12-16T17:04:47.440Z,37.72
2022-12-16T17:07:28.441Z,26.80
2022-12-16T17:08:49.265Z,38.17
2022-12-16T17:11:36.552Z,36.85
2022-12-16T17:13:04.470Z,38.60
2022-12-16T17:14:30.364Z,38.20
2022-12-16T17:15:54.450Z,38.28
2022-12-16T17:17:15.699Z,37.63
2022-12-16T17:18:40.001Z,37.53
2022-12-16T17:20:04.502Z,38.88
2022-12-16T17:21:25.590Z,39.47
2022-12-16T17:22:46.705Z,39.67
2022-12-16T17:24:07.260Z,38.15
2022-12-16T17:25:28.206Z,39.38
2022-12-16T17:26:49.431Z,39.75
2022-12-16T17:29:11.210Z,37.42
2022-12-16T17:30:40.708Z,37.65
2022-12-16T17:32:07.955Z,37.33
2022-12-16T17:33:29.222Z,40.97
2022-12-16T17:34:50.348Z,36.72
2022-12-16T17:36:15.023Z,39.63
2022-12-16T17:37:36.105Z,39.88
2022-12-16T17:38:59.435Z,40.65
2022-12-16T17:40:20.291Z,38.72
2022-12-16T17:41:41.542Z,39.10
2022-12-16T17:43:07.664Z,38.53
2022-12-16T17:44:29.405Z,39.33
2022-12-16T17:45:51.840Z,40.08
2022-12-16T17:47:12.721Z,39.50
2022-12-16T17:49:54.493Z,37.30
2022-12-16T17:51:16.226Z,36.85
2022-12-16T17:52:37.449Z,37.90
2022-12-16T17:54:03.061Z,38.17
2022-12-16T17:55:28.573Z,38.17
2022-12-16T17:56:49.777Z,38.75
2022-12-16T17:58:10.865Z,38.75
2022-12-16T17:59:31.841Z,39.30
2022-12-16T18:00:56.932Z,38.05
2022-12-16T18:02:17.891Z,39.17
2022-12-16T18:03:39.287Z,39.58
2022-12-16T18:05:00.812Z,39.53
2022-12-16T18:06:37.068Z,37.72
2022-12-16T18:07:58.457Z,39.58
2022-12-16T18:09:19.623Z,39.90